createdAt,value
2023-01-29T00:00:21.608Z,0.85
2023-01-29T00:03:05.838Z,0.95
2023-01-29T00:05:50.340Z,1.00
2023-01-29T00:08:34.831Z,1.08
2023-01-29T00:11:18.245Z,0.93
2023-01-29T00:14:01.404Z,0.97
2023-01-29T00:16:44.540Z,0.94
2023-01-29T00:19:27.884Z,0.94
2023-01-29T00:22:14.876Z,1.00
2023-01-29T00:25:00.597Z,0.95
2023-01-29T00:27:46.419Z,1.01
2023-01-29T00:30:29.645Z,1.11
2023-01-29T00:33:13.679Z,1.03
2023-01-29T00:35:57.155Z,1.07
2023-01-29T00:38:41.690Z,1.08
2023-01-29T00:41:42.479Z,1.12
2023-01-29T00:44:44.449Z,0.98
2023-01-29T00:47:34.850Z,0.95
2023-01-29T00:50:18.596Z,1.03
2023-01-29T00:53:01.907Z,1.08
2023-01-29T00:55:47.569Z,1.12
2023-01-29T00:58:34.318Z,1.19
2023-01-29T01:01:17.905Z,1.11
2023-01-29T01:04:00.115Z,1.07
2023-01-29T01:06:44.247Z,1.13
2023-01-29T01:09:46.885Z,1.06
2023-01-29T01:12:33.175Z,1.00
2023-01-29T01:15:16.303Z,1.01
2023-01-29T01:18:01.118Z,0.93
2023-01-29T01:20:44.304Z,0.94
2023-01-29T01:23:28.086Z,0.94
2023-01-29T01:26:11.953Z,1.01
2023-01-29T01:28:56.502Z,0.98
2023-01-29T01:31:39.671Z,0.89
2023-01-29T01:34:23.166Z,0.92
2023-01-29T01:37:06.581Z,0.95
2023-01-29T01:39:50.645Z,0.77
2023-01-29T01:42:33.774Z,0.83
2023-01-29T01:45:24.883Z,0.80
2023-01-29T01:48:14.392Z,0.89
2023-01-29T01:51:03.365Z,1.01
2023-01-29T01:53:58.633Z,0.98
2023-01-29T01:56:45.963Z,0.97
2023-01-29T01:59:29.076Z,1.02
2023-01-29T02:02:32.092Z,1.05
2023-01-29T02:05:33.492Z,1.13
2023-01-29T02:08:36.578Z,1.05
2023-01-29T02:11:19.689Z,1.01
2023-01-29T02:14:03.658Z,0.87
2023-01-29T02:16:46.797Z,0.88
2023-01-29T02:19:45.720Z,0.88
2023-01-29T02:22:54.118Z,0.79
2023-01-29T02:26:16.116Z,0.87
2023-01-29T02:29:27.597Z,0.81
2023-01-29T02:32:21.677Z,0.83
2023-01-29T02:35:30.240Z,0.83
2023-01-29T02:38:22.290Z,0.76
2023-01-29T02:41:12.049Z,0.75
2023-01-29T02:44:03.115Z,0.83
2023-01-29T02:46:53.911Z,0.75
2023-01-29T02:49:45.600Z,0.70
2023-01-29T02:52:37.729Z,0.71
2023-01-29T02:55:26.088Z,0.70
2023-01-29T02:58:14.746Z,0.73
2023-01-29T03:01:05.734Z,0.78
2023-01-29T03:03:57.017Z,0.76
2023-01-29T03:06:44.336Z,0.81
2023-01-29T03:09:34.508Z,0.77
2023-01-29T03:12:39.453Z,0.77
2023-01-29T03:15:29.566Z,0.81
2023-01-29T03:18:27.572Z,0.77
2023-01-29T03:21:34.493Z,0.82
2023-01-29T03:24:39.273Z,0.77
2023-01-29T03:27:45.460Z,0.72
2023-01-29T03:30:49.584Z,0.72
2023-01-29T03:33:40.539Z,0.70
2023-01-29T03:36:38.141Z,0.72
2023-01-29T03:39:21.316Z,0.82
2023-01-29T03:42:10.215Z,0.91
2023-01-29T03:45:00.496Z,0.82
2023-01-29T03:47:50.488Z,0.82
2023-01-29T03:50:40.303Z,0.80
2023-01-29T03:53:29.767Z,0.85
2023-01-29T03:56:29.390Z,0.81
2023-01-29T04:02:27.648Z,0.78
2023-01-29T04:08:18.313Z,0.73
2023-01-29T04:11:09.764Z,0.64
2023-01-29T04:13:58.327Z,0.62
2023-01-29T04:16:46.306Z,0.71
2023-01-29T04:19:29.959Z,0.71
2023-01-29T04:22:18.540Z,0.72
2023-01-29T04:25:08.727Z,0.74
2023-01-29T04:28:05.747Z,0.70
2023-01-29T04:34:05.333Z,0.63
2023-01-29T04:37:02.735Z,0.71
2023-01-29T04:39:50.989Z,0.72
2023-01-29T04:42:42.957Z,0.54
2023-01-29T04:45:38.212Z,0.65
2023-01-29T04:48:28.717Z,0.68
2023-01-29T04:51:23.519Z,0.56
2023-01-29T04:54:13.905Z,0.55
2023-01-29T04:57:03.159Z,0.70
2023-01-29T04:59:52.437Z,0.65
2023-01-29T05:02:42.693Z,0.59
2023-01-29T05:05:25.967Z,0.34
2023-01-29T05:08:10.577Z,0.55
2023-01-29T05:10:56.171Z,0.57
2023-01-29T05:13:43.535Z,0.61
2023-01-29T05:16:32.075Z,0.40
2023-01-29T05:19:18.163Z,0.55
2023-01-29T05:22:01.793Z,0.66
2023-01-29T05:24:47.063Z,0.65
2023-01-29T05:27:53.353Z,0.59
2023-01-29T05:30:38.279Z,0.61
2023-01-29T05:33:23.506Z,0.67
2023-01-29T05:36:10.568Z,0.61
2023-01-29T05:38:53.733Z,0.67
2023-01-29T05:41:36.896Z,0.76
2023-01-29T05:44:20.576Z,0.67
2023-01-29T05:47:04.088Z,0.74
2023-01-29T05:49:47.479Z,0.78
2023-01-29T05:52:32.071Z,0.74
2023-01-29T05:55:15.138Z,0.67
2023-01-29T05:57:58.201Z,0.58
2023-01-29T06:00:41.649Z,0.70
2023-01-29T06:03:24.851Z,0.79
2023-01-29T06:06:08.436Z,0.71
2023-01-29T06:08:53.189Z,0.72
2023-01-29T06:11:36.359Z,0.70
2023-01-29T06:14:19.969Z,0.86
2023-01-29T06:17:03.090Z,0.90
2023-01-29T06:19:48.310Z,1.01
2023-01-29T06:22:33.440Z,0.99
2023-01-29T06:25:18.073Z,0.97
2023-01-29T06:28:01.160Z,1.06
2023-01-29T06:30:49.212Z,1.07
2023-01-29T06:33:32.714Z,1.10
2023-01-29T06:36:15.859Z,1.16
2023-01-29T06:39:01.257Z,1.21
2023-01-29T06:41:47.544Z,1.29
2023-01-29T06:44:30.674Z,1.43
2023-01-29T06:47:13.778Z,1.53
2023-01-29T06:49:59.300Z,1.54
2023-01-29T06:52:42.512Z,1.52
2023-01-29T06:55:25.704Z,1.54
2023-01-29T06:58:11.682Z,1.53
2023-01-29T07:00:54.875Z,1.42
2023-01-29T07:03:38.544Z,1.58
2023-01-29T07:06:22.386Z,1.71
2023-01-29T07:09:06.316Z,1.75
2023-01-29T07:11:49.805Z,1.76
2023-01-29T07:14:34.626Z,1.86
2023-01-29T07:17:17.760Z,1.84
2023-01-29T07:20:00.936Z,1.90
2023-01-29T07:22:47.649Z,1.76
2023-01-29T07:25:31.178Z,1.87
2023-01-29T07:28:14.410Z,2.02
2023-01-29T07:30:59.555Z,2.00
2023-01-29T07:33:50.210Z,2.12
2023-01-29T07:36:33.365Z,2.01
2023-01-29T07:39:16.832Z,2.00
2023-01-29T07:42:03.991Z,2.21
2023-01-29T07:44:47.086Z,2.33
2023-01-29T07:47:33.080Z,2.22
2023-01-29T07:50:16.534Z,2.30
2023-01-29T07:53:03.041Z,2.22
2023-01-29T07:55:46.438Z,2.31
2023-01-29T07:58:31.918Z,2.34
2023-01-29T08:01:15.209Z,2.45
2023-01-29T08:03:59.799Z,2.44
2023-01-29T08:06:44.392Z,2.39
2023-01-29T08:09:27.502Z,2.37
2023-01-29T08:12:10.691Z,2.33
2023-01-29T08:15:02.767Z,2.43
2023-01-29T08:17:57.250Z,2.39
2023-01-29T08:20:42.931Z,2.43
2023-01-29T08:23:26.094Z,2.53
2023-01-29T08:26:11.669Z,2.67
2023-01-29T08:28:56.028Z,2.63
2023-01-29T08:31:39.197Z,2.63
2023-01-29T08:34:22.307Z,2.63
2023-01-29T08:37:07.036Z,2.76
2023-01-29T08:39:50.199Z,2.88
2023-01-29T08:42:33.326Z,3.02
2023-01-29T08:45:17.667Z,3.03
2023-01-29T08:48:01.368Z,3.01
2023-01-29T08:50:44.853Z,2.95
2023-01-29T08:53:30.947Z,3.10
2023-01-29T08:56:14.191Z,3.16
2023-01-29T08:58:59.723Z,3.23
2023-01-29T09:01:42.814Z,3.04
2023-01-29T09:04:29.310Z,2.98
2023-01-29T09:07:12.436Z,2.94
2023-01-29T09:09:56.984Z,2.88
2023-01-29T09:12:40.109Z,2.63
2023-01-29T09:15:23.471Z,2.84
2023-01-29T09:18:07.246Z,2.62
2023-01-29T09:20:52.236Z,2.76
2023-01-29T09:23:36.004Z,2.80
2023-01-29T09:26:20.944Z,2.85
2023-01-29T09:29:04.099Z,2.76
2023-01-29T09:31:47.508Z,2.61
2023-01-29T09:34:30.840Z,2.62
2023-01-29T09:37:13.968Z,2.72
2023-01-29T09:39:57.032Z,2.68
2023-01-29T09:42:51.031Z,2.69
2023-01-29T09:45:34.938Z,2.77
2023-01-29T09:48:18.627Z,2.75
2023-01-29T09:51:06.750Z,2.83
2023-01-29T09:53:58.711Z,2.78
2023-01-29T09:56:45.314Z,3.16
2023-01-29T09:59:35.237Z,3.37
2023-01-29T10:02:38.664Z,3.07
2023-01-29T10:05:34.545Z,3.23
2023-01-29T10:08:44.273Z,3.17
2023-01-29T10:11:43.448Z,3.10
2023-01-29T10:14:38.538Z,3.19
2023-01-29T10:17:50.315Z,3.03
2023-01-29T10:20:51.401Z,2.95
2023-01-29T10:23:38.547Z,2.70
2023-01-29T10:26:27.740Z,2.83
2023-01-29T10:29:17.942Z,2.79
2023-01-29T10:32:08.286Z,2.84
2023-01-29T10:34:58.136Z,2.85
2023-01-29T10:37:45.818Z,2.84
2023-01-29T10:40:38.348Z,2.86
2023-01-29T10:43:32.221Z,3.02
2023-01-29T10:46:24.873Z,3.06
2023-01-29T10:49:23.279Z,3.15
2023-01-29T10:52:19.161Z,3.20
2023-01-29T10:55:16.155Z,3.14
2023-01-29T10:58:10.860Z,3.03
2023-01-29T11:00:54.132Z,3.16
2023-01-29T11:03:37.780Z,3.32
2023-01-29T11:06:25.553Z,3.26
2023-01-29T11:09:19.166Z,3.27
2023-01-29T11:12:08.320Z,3.23
2023-01-29T11:14:56.560Z,3.18
2023-01-29T11:17:40.428Z,3.21
2023-01-29T11:20:29.638Z,3.37
2023-01-29T11:23:38.073Z,3.48
2023-01-29T11:26:24.312Z,3.48
2023-01-29T11:29:39.866Z,3.55
2023-01-29T11:32:35.531Z,3.50
2023-01-29T11:35:41.684Z,3.41
2023-01-29T11:39:23.979Z,3.42
2023-01-29T11:42:21.814Z,4.25
2023-01-29T11:45:06.813Z,4.11
2023-01-29T11:47:56.536Z,4.36
2023-01-29T11:50:44.763Z,4.37
2023-01-29T11:53:40.260Z,4.39
2023-01-29T11:56:33.550Z,4.48
2023-01-29T11:59:40.174Z,4.69
2023-01-29T12:02:36.421Z,4.86
2023-01-29T12:05:30.454Z,4.85
2023-01-29T12:08:19.406Z,4.75
2023-01-29T12:11:09.929Z,4.40
2023-01-29T12:13:55.581Z,4.68
2023-01-29T12:16:50.994Z,4.48
2023-01-29T12:19:44.651Z,4.49
2023-01-29T12:22:44.543Z,4.50
2023-01-29T12:25:39.929Z,4.51
2023-01-29T12:28:41.366Z,4.57
2023-01-29T12:31:40.506Z,4.57
2023-01-29T12:34:32.372Z,4.38
2023-01-29T12:37:25.663Z,4.08
2023-01-29T12:40:16.823Z,3.88
2023-01-29T12:43:09.585Z,3.85
2023-01-29T12:45:57.009Z,3.64
2023-01-29T12:48:45.187Z,3.64
2023-01-29T12:51:34.960Z,3.94
2023-01-29T12:54:23.513Z,4.02
2023-01-29T12:57:11.781Z,4.16
2023-01-29T12:59:59.707Z,4.01
2023-01-29T13:02:53.419Z,4.01
2023-01-29T13:05:45.517Z,4.01
2023-01-29T13:08:39.755Z,3.94
2023-01-29T13:11:27.405Z,3.90
2023-01-29T13:14:24.723Z,3.88
2023-01-29T13:17:14.483Z,3.79
2023-01-29T13:20:05.205Z,3.77
2023-01-29T13:22:49.648Z,3.80
2023-01-29T13:25:35.288Z,3.88
2023-01-29T13:28:21.011Z,3.85
2023-01-29T13:31:19.696Z,3.58
2023-01-29T13:34:18.382Z,3.63
2023-01-29T13:37:04.263Z,3.76
2023-01-29T13:39:52.115Z,3.78
2023-01-29T13:42:53.450Z,3.59
2023-01-29T13:45:50.345Z,3.51
2023-01-29T13:48:36.965Z,3.36
2023-01-29T13:51:23.751Z,3.33
2023-01-29T13:54:17.147Z,3.28
2023-01-29T13:57:04.568Z,3.20
2023-01-29T13:59:54.738Z,2.98
2023-01-29T14:02:43.400Z,3.01
2023-01-29T14:05:41.489Z,2.77
2023-01-29T14:08:45.459Z,2.81
2023-01-29T14:11:37.652Z,2.76
2023-01-29T14:15:02.785Z,2.76
2023-01-29T14:18:16.657Z,2.61
2023-01-29T14:21:02.752Z,2.58
2023-01-29T14:23:48.249Z,2.53
2023-01-29T14:26:34.520Z,2.30
2023-01-29T14:29:29.066Z,2.22
2023-01-29T14:32:21.938Z,2.26
2023-01-29T14:35:21.180Z,2.17
2023-01-29T14:38:08.818Z,2.21
2023-01-29T14:40:52.840Z,2.15
2023-01-29T14:43:36.315Z,2.14
2023-01-29T14:46:45.984Z,2.25
2023-01-29T14:49:57.909Z,2.23
2023-01-29T14:52:51.193Z,2.10
2023-01-29T14:55:41.043Z,2.05
2023-01-29T14:58:31.038Z,2.11
2023-01-29T15:01:22.915Z,2.03
2023-01-29T15:04:14.082Z,1.79
2023-01-29T15:07:04.374Z,1.87
2023-01-29T15:09:51.109Z,1.90
2023-01-29T15:12:40.487Z,1.71
2023-01-29T15:15:36.828Z,1.67
2023-01-29T15:18:28.566Z,1.62
2023-01-29T15:21:16.484Z,1.67
2023-01-29T15:24:09.660Z,1.45
2023-01-29T15:26:52.818Z,1.47
2023-01-29T15:29:36.789Z,1.46
2023-01-29T15:32:30.752Z,1.33
2023-01-29T15:35:28.389Z,1.46
2023-01-29T15:38:24.090Z,1.40
2023-01-29T15:41:20.357Z,1.32
2023-01-29T15:44:03.763Z,1.21
2023-01-29T15:46:51.247Z,1.29
2023-01-29T15:49:39.263Z,1.21
2023-01-29T15:52:28.588Z,1.24
2023-01-29T15:55:18.082Z,1.22
2023-01-29T15:58:02.997Z,1.15
2023-01-29T16:00:52.255Z,1.21
2023-01-29T16:03:38.965Z,1.13
2023-01-29T16:06:23.435Z,1.16
2023-01-29T16:09:11.734Z,1.19
2023-01-29T16:11:58.237Z,1.15
2023-01-29T16:14:45.210Z,1.22
2023-01-29T16:17:35.349Z,1.08
2023-01-29T16:20:32.589Z,1.10
2023-01-29T16:23:21.756Z,1.15
2023-01-29T16:26:08.166Z,1.10
2023-01-29T16:28:51.719Z,1.05
2023-01-29T16:31:40.236Z,1.13
2023-01-29T16:34:31.407Z,1.06
2023-01-29T16:37:23.006Z,1.03
2023-01-29T16:40:17.119Z,1.09
2023-01-29T16:43:48.658Z,1.14
2023-01-29T16:46:37.710Z,1.19
2023-01-29T16:49:47.328Z,1.16
2023-01-29T16:52:32.744Z,1.14
2023-01-29T16:55:22.076Z,1.25
2023-01-29T16:58:13.812Z,1.35
2023-01-29T17:01:06.691Z,1.30
2023-01-29T17:03:58.834Z,1.24
2023-01-29T17:06:46.075Z,1.29
2023-01-29T17:09:35.616Z,1.23
2023-01-29T17:12:21.990Z,1.21
2023-01-29T17:15:27.242Z,1.09
2023-01-29T17:18:19.036Z,0.99
2023-01-29T17:21:03.630Z,1.02
2023-01-29T17:23:46.731Z,0.95
2023-01-29T17:26:33.182Z,1.01
2023-01-29T17:29:19.117Z,0.98
2023-01-29T17:32:02.670Z,1.03
2023-01-29T17:34:46.791Z,0.97
2023-01-29T17:37:31.311Z,1.08
2023-01-29T17:40:31.435Z,1.13
2023-01-29T17:43:14.560Z,1.13
2023-01-29T17:45:57.828Z,1.11
2023-01-29T17:48:41.308Z,1.11
2023-01-29T17:51:28.881Z,0.95
2023-01-29T17:54:13.566Z,1.17
2023-01-29T17:57:00.288Z,1.17
2023-01-29T17:59:45.010Z,1.27
2023-01-29T18:02:31.299Z,1.23
2023-01-29T18:05:16.935Z,1.31
2023-01-29T18:08:00.503Z,1.33
2023-01-29T18:10:47.965Z,1.18
2023-01-29T18:13:31.173Z,1.18
2023-01-29T18:16:14.591Z,1.09
2023-01-29T18:18:57.715Z,1.15
2023-01-29T18:21:41.091Z,1.08
2023-01-29T18:24:26.647Z,1.03
2023-01-29T18:27:13.186Z,1.07
2023-01-29T18:29:57.868Z,1.07
2023-01-29T18:32:41.155Z,1.08
2023-01-29T18:35:24.872Z,0.92
2023-01-29T18:38:08.096Z,0.93
2023-01-29T18:40:51.363Z,0.80
2023-01-29T18:43:38.470Z,0.94
2023-01-29T18:46:24.355Z,1.09
2023-01-29T18:49:09.253Z,0.99
2023-01-29T18:51:55.337Z,1.00
2023-01-29T18:54:40.280Z,1.06
2023-01-29T18:58:29.371Z,1.09
2023-01-29T19:00:28.106Z,1.05
2023-01-29T19:03:11.876Z,1.01
2023-01-29T19:05:58.368Z,0.90
2023-01-29T19:08:43.089Z,0.99
2023-01-29T19:11:28.500Z,0.90
2023-01-29T19:14:11.522Z,0.82
2023-01-29T19:16:59.565Z,0.78
2023-01-29T19:19:42.850Z,0.79
2023-01-29T19:22:29.057Z,0.90
2023-01-29T19:25:21.689Z,0.96
2023-01-29T19:28:05.369Z,0.94
2023-01-29T19:30:48.969Z,1.01
2023-01-29T19:33:35.432Z,0.94
2023-01-29T19:36:20.911Z,0.98
2023-01-29T19:39:04.180Z,0.93
2023-01-29T19:41:48.903Z,0.94
2023-01-29T19:44:32.511Z,0.87
2023-01-29T19:47:16.159Z,0.70
2023-01-29T19:50:02.540Z,0.77
2023-01-29T19:52:51.778Z,0.76
2023-01-29T19:55:37.631Z,0.89
2023-01-29T19:58:21.084Z,0.86
2023-01-29T20:01:06.946Z,0.88
2023-01-29T20:03:54.372Z,0.94
2023-01-29T20:06:41.280Z,0.96
2023-01-29T20:09:27.455Z,0.90
2023-01-29T20:12:13.134Z,0.71
2023-01-29T20:14:56.431Z,0.83
2023-01-29T20:17:40.595Z,0.73
2023-01-29T20:20:24.337Z,0.74
2023-01-29T20:23:25.047Z,0.83
2023-01-29T20:26:16.833Z,0.78
2023-01-29T20:29:02.449Z,0.79
2023-01-29T20:31:46.034Z,0.83
2023-01-29T20:34:29.372Z,0.76
2023-01-29T20:37:12.526Z,0.79
2023-01-29T20:39:57.086Z,0.79
2023-01-29T20:42:40.203Z,0.76
2023-01-29T20:45:25.189Z,0.72
2023-01-29T20:48:08.984Z,0.74
2023-01-29T20:50:52.518Z,0.71
2023-01-29T20:53:36.242Z,0.59
2023-01-29T20:56:32.170Z,0.60
2023-01-29T20:59:20.711Z,0.60
2023-01-29T21:02:06.700Z,0.63
2023-01-29T21:04:50.169Z,0.61
2023-01-29T21:07:33.746Z,0.63
2023-01-29T21:10:17.800Z,0.55
2023-01-29T21:13:03.633Z,0.56
2023-01-29T21:15:46.777Z,0.75
2023-01-29T21:18:30.381Z,0.79
2023-01-29T21:21:13.782Z,0.73
2023-01-29T21:23:58.283Z,0.84
2023-01-29T21:26:43.772Z,0.87
2023-01-29T21:29:30.602Z,0.87
2023-01-29T21:32:14.213Z,0.87
2023-01-29T21:34:57.230Z,0.71
2023-01-29T21:37:44.163Z,0.64
2023-01-29T21:40:27.359Z,0.82
2023-01-29T21:43:12.223Z,0.86
2023-01-29T21:46:02.613Z,0.92
2023-01-29T21:48:45.780Z,0.72
2023-01-29T21:51:29.414Z,0.85
2023-01-29T21:54:12.412Z,0.98
2023-01-29T21:56:57.383Z,1.00
2023-01-29T21:59:40.549Z,1.03
2023-01-29T22:02:26.641Z,1.00
2023-01-29T22:05:18.939Z,1.10
2023-01-29T22:08:04.996Z,1.05
2023-01-29T22:10:48.274Z,1.09
2023-01-29T22:13:35.611Z,1.19
2023-01-29T22:16:18.742Z,1.09
2023-01-29T22:19:03.363Z,1.04
2023-01-29T22:21:46.493Z,1.05
2023-01-29T22:24:29.768Z,1.00
2023-01-29T22:27:13.101Z,1.00
2023-01-29T22:29:57.003Z,1.04
2023-01-29T22:32:40.175Z,0.93
2023-01-29T22:35:24.687Z,0.88
2023-01-29T22:38:07.935Z,0.96
2023-01-29T22:40:51.389Z,1.02
2023-01-29T22:43:34.576Z,1.04
2023-01-29T22:46:19.603Z,1.00
2023-01-29T22:49:02.695Z,1.02
2023-01-29T22:51:48.562Z,1.01
2023-01-29T22:54:31.614Z,0.96
2023-01-29T22:57:16.413Z,0.96
2023-01-29T22:59:59.636Z,0.93
2023-01-29T23:02:42.720Z,0.98
2023-01-29T23:05:25.740Z,0.90
2023-01-29T23:08:12.695Z,0.87
2023-01-29T23:10:55.834Z,0.72
2023-01-29T23:13:38.922Z,0.71
2023-01-29T23:16:28.166Z,0.68
2023-01-29T23:19:12.829Z,0.68
2023-01-29T23:21:55.868Z,0.65
2023-01-29T23:24:40.351Z,0.64
2023-01-29T23:27:22.379Z,0.69
2023-01-29T23:30:06.747Z,0.61
2023-01-29T23:32:52.381Z,0.65
2023-01-29T23:35:35.440Z,0.69
2023-01-29T23:38:18.642Z,0.53
2023-01-29T23:41:03.101Z,0.43
2023-01-29T23:43:46.429Z,0.32
2023-01-29T23:46:29.589Z,0.50
2023-01-29T23:49:12.876Z,0.48
2023-01-29T23:51:56.014Z,0.60
2023-01-29T23:54:39.107Z,0.53
2023-01-29T23:57:28.563Z,0.59
